Time;durP1;ratioP1;P1;durP2;ratioP2;P2;SDS_P1;SDS_P2;PMS_P1;PMS_P2;Temp;Humidity;BMP_temperature;BMP_pressure;BME280_temperature;BME280_humidity;BME280_pressure;Samples;Min_cycle;Max_cycle;Signal;HPM_P1;HPM_P2
2024/01/24 00:01:50;;;;;;;36.40;22.80;;;;;;;1.85;66.13;101302.59;4377201;32;20146;-73
2024/01/24 00:04:20;;;;;;;39.00;23.15;;;;;;;1.91;66.09;101292.09;4377374;32;20459;-73
2024/01/24 00:06:50;;;;;;;36.30;23.60;;;;;;;1.78;66.18;101307.03;4377141;32;20462;-73
2024/01/24 00:09:22;;;;;;;35.15;23.00;;;;;;;2.24;64.66;101303.88;4390097;27;20177;-73
2024/01/24 00:11:51;;;;;;;38.30;24.05;;;;;;;2.25;64.60;101310.84;4361233;32;20174;-73
2024/01/24 00:14:22;;;;;;;38.50;25.05;;;;;;;2.34;64.31;101310.75;4362604;33;20150;-73
2024/01/24 00:16:50;;;;;;;35.97;21.73;;;;;;;1.75;66.13;101322.75;4362432;32;20150;-73
2024/01/24 00:19:24;;;;;;;41.42;21.98;;;;;;;1.46;67.12;101323.00;4362148;32;20150;-73
2024/01/24 00:21:53;;;;;;;36.83;23.35;;;;;;;1.68;66.80;101315.84;4362180;32;20146;-73
2024/01/24 00:24:23;;;;;;;33.97;24.50;;;;;;;1.14;67.95;101323.28;4362343;32;20141;-73
2024/01/24 00:26:52;;;;;;;39.15;23.98;;;;;;;1.42;67.78;101310.88;4362167;32;20158;-73
2024/01/24 00:29:25;;;;;;;37.95;23.62;;;;;;;1.72;66.29;101314.94;4362388;32;20197;-73
2024/01/24 00:31:57;;;;;;;36.58;22.95;;;;;;;1.79;66.04;101314.00;4362376;32;20145;-73
2024/01/24 00:34:26;;;;;;;37.58;23.25;;;;;;;1.29;67.79;101312.72;4362230;32;20149;-73
2024/01/24 00:36:56;;;;;;;36.47;23.15;;;;;;;1.73;66.47;101308.81;4362323;32;20112;-73
2024/01/24 00:39:26;;;;;;;38.83;21.08;;;;;;;1.49;67.19;101309.94;4368399;27;20209;-73
2024/01/24 00:41:58;;;;;;;39.25;23.27;;;;;;;1.53;66.88;101295.97;4371677;32;20174;-73
2024/01/24 00:44:29;;;;;;;40.97;22.50;;;;;;;1.75;66.03;101283.56;4377548;32;20172;-73
2024/01/24 00:46:59;;;;;;;35.50;22.27;;;;;;;1.44;66.71;101291.69;4377065;32;20165;-73
2024/01/24 00:49:31;;;;;;;32.22;19.58;;;;;;;1.27;67.69;101297.94;4377126;32;20165;-73
2024/01/24 00:52:03;;;;;;;31.58;20.05;;;;;;;1.66;66.33;101302.81;4377093;32;20157;-73
2024/01/24 00:54:33;;;;;;;34.17;21.02;;;;;;;1.57;66.72;101308.13;4376860;32;20529;-73
2024/01/24 00:57:02;;;;;;;31.73;21.25;;;;;;;1.63;66.53;101310.69;4376109;32;20149;-73
2024/01/24 00:59:32;;;;;;;31.67;20.35;;;;;;;1.50;66.92;101311.66;4377186;32;20154;-73
2024/01/24 01:02:04;;;;;;;37.00;20.85;;;;;;;1.87;65.21;101306.94;4354886;32;20166;-73
2024/01/24 01:04:38;;;;;;;31.50;20.05;;;;;;;1.73;65.13;101303.59;4376962;32;20153;-73
2024/01/24 01:07:07;;;;;;;31.33;18.55;;;;;;;1.50;65.88;101301.22;4376653;32;20154;-73
2024/01/24 01:09:37;;;;;;;32.50;18.12;;;;;;;1.80;65.01;101296.56;4383883;27;20431;-73
2024/01/24 01:12:07;;;;;;;29.02;19.35;;;;;;;1.86;64.90;101278.19;4401742;32;20418;-73
2024/01/24 01:14:38;;;;;;;30.27;18.65;;;;;;;1.77;65.22;101276.56;4406917;32;20470;-73
2024/01/24 01:17:08;;;;;;;25.02;17.95;;;;;;;1.69;65.17;101271.41;4407603;32;20185;-73
2024/01/24 01:19:41;;;;;;;30.08;18.02;;;;;;;1.78;65.20;101273.03;4406878;32;20153;-73
2024/01/24 01:22:11;;;;;;;34.35;17.35;;;;;;;1.92;64.52;101257.22;4407066;32;20490;-73
2024/01/24 01:24:42;;;;;;;29.12;17.40;;;;;;;1.70;65.43;101254.88;4407033;32;20161;-73
2024/01/24 01:27:11;;;;;;;24.27;17.12;;;;;;;1.75;65.35;101249.59;4407004;32;20145;-73
2024/01/24 01:29:43;;;;;;;26.52;18.20;;;;;;;1.83;65.24;101233.81;4406823;32;20145;-73
2024/01/24 01:32:12;;;;;;;25.20;19.35;;;;;;;1.71;65.63;101233.06;4407441;32;20153;-73
2024/01/24 01:34:41;;;;;;;28.17;16.87;;;;;;;1.60;66.31;101229.72;4406752;32;20137;-73
2024/01/24 01:37:10;;;;;;;27.62;17.20;;;;;;;1.24;67.37;101244.03;4406659;32;20180;-73
2024/01/24 01:39:40;;;;;;;27.45;16.33;;;;;;;1.36;67.12;101245.66;4415979;27;20731;-73
2024/01/24 01:42:11;;;;;;;31.65;15.90;;;;;;;1.27;67.47;101246.63;4390530;32;20156;-73
2024/01/24 01:44:45;;;;;;;28.90;17.10;;;;;;;1.49;66.81;101242.03;4391839;32;20137;-73
2024/01/24 01:47:16;;;;;;;25.80;17.27;;;;;;;1.61;66.49;101230.56;4391899;32;20507;-73
2024/01/24 01:49:46;;;;;;;27.17;14.87;;;;;;;1.76;66.07;101213.88;4391502;32;20502;-73
2024/01/24 01:52:17;;;;;;;23.20;15.20;;;;;;;1.84;65.75;101202.44;4391725;32;20153;-73
2024/01/24 01:54:47;;;;;;;19.23;13.02;;;;;;;1.91;65.46;101196.25;4391467;32;20149;-73
2024/01/24 01:57:17;;;;;;;20.50;15.30;;;;;;;2.01;65.05;101201.34;4391395;32;20536;-73
2024/01/24 01:59:48;;;;;;;26.15;15.38;;;;;;;1.93;64.96;101199.69;4391542;32;20141;-73
2024/01/24 02:02:17;;;;;;;25.12;16.90;;;;;;;1.73;64.48;101193.84;4392000;32;20177;-73
2024/01/24 02:04:47;;;;;;;27.30;16.00;;;;;;;1.65;64.19;101196.56;4391645;32;20499;-73
2024/01/24 02:07:17;;;;;;;23.00;15.38;;;;;;;1.83;63.93;101202.47;4391269;32;20153;-73
2024/01/24 02:09:46;;;;;;;22.60;15.63;;;;;;;1.70;63.82;101202.63;4390467;27;20186;-73
2024/01/24 02:12:16;;;;;;;25.05;15.40;;;;;;;1.61;64.21;101215.75;4359987;32;20161;-73
2024/01/24 02:14:46;;;;;;;17.73;13.85;;;;;;;1.82;63.69;101206.81;4361526;32;20145;-73
2024/01/24 02:17:16;;;;;;;24.08;14.70;;;;;;;2.04;62.35;101207.41;4361883;33;20169;-73
2024/01/24 02:19:44;;;;;;;20.65;14.07;;;;;;;1.73;63.04;101192.09;4361582;32;20138;-73
2024/01/24 02:22:14;;;;;;;21.00;13.70;;;;;;;1.52;63.97;101200.19;4361550;32;20183;-73
2024/01/24 02:24:44;;;;;;;18.27;14.52;;;;;;;1.15;65.40;101197.13;4361409;32;20126;-73
2024/01/24 02:27:14;;;;;;;21.25;15.13;;;;;;;1.08;66.04;101188.47;4361557;32;20149;-74
2024/01/24 02:29:43;;;;;;;24.20;15.43;;;;;;;1.03;66.20;101192.87;4361234;32;20153;-74
2024/01/24 02:32:13;;;;;;;27.75;14.48;;;;;;;1.35;65.45;101186.47;4361893;33;20146;-74
2024/01/24 02:34:44;;;;;;;22.55;14.85;;;;;;;1.31;65.56;101197.84;4361520;32;20166;-74
2024/01/24 02:37:14;;;;;;;26.27;15.75;;;;;;;1.32;65.74;101181.28;4361401;32;20181;-74
2024/01/24 02:39:45;;;;;;;21.75;14.60;;;;;;;1.41;65.37;101174.19;4377165;27;20189;-73
2024/01/24 02:42:15;;;;;;;29.50;14.82;;;;;;;1.50;65.23;101168.00;4400164;32;20172;-74
2024/01/24 02:44:44;;;;;;;25.23;15.50;;;;;;;1.55;65.01;101174.06;4406571;32;20145;-74
2024/01/24 02:47:13;;;;;;;25.33;15.55;;;;;;;1.38;65.45;101166.38;4406931;32;20138;-74
2024/01/24 02:49:42;;;;;;;24.50;14.63;;;;;;;1.52;65.19;101166.25;4406367;32;20137;-74
2024/01/24 02:52:12;;;;;;;23.60;16.15;;;;;;;1.41;65.48;101168.13;4406338;32;20184;-74
2024/01/24 02:54:42;;;;;;;22.73;14.18;;;;;;;1.62;64.67;101169.59;4406142;32;20180;-74
2024/01/24 02:57:12;;;;;;;24.65;15.63;;;;;;;1.42;65.09;101172.44;4406287;32;20506;-74
2024/01/24 02:59:42;;;;;;;22.85;14.20;;;;;;;1.15;65.69;101178.84;4406173;32;20184;-74
2024/01/24 03:02:14;;;;;;;20.20;13.25;;;;;;;1.17;65.83;101179.69;4406588;32;20164;-74
2024/01/24 03:04:43;;;;;;;;;;;;;;;1.43;65.02;101166.38;4406637;32;20292;-74
2024/01/24 03:07:12;;;;;;;20.20;14.45;;;;;;;1.40;65.10;101158.56;4406059;32;20047;-74
2024/01/24 03:09:42;;;;;;;23.52;13.02;;;;;;;1.19;65.55;101151.84;4408372;27;20193;-74
2024/01/24 03:12:13;;;;;;;25.98;16.37;;;;;;;1.12;65.94;101151.03;4392868;32;20177;-74
2024/01/24 03:14:43;;;;;;;21.75;13.98;;;;;;;1.34;65.22;101140.34;4406036;32;20402;-74
2024/01/24 03:17:12;;;;;;;20.08;14.00;;;;;;;1.20;65.49;101146.59;4406531;32;20153;-74
2024/01/24 03:19:44;;;;;;;22.70;14.20;;;;;;;1.45;64.93;101130.62;4405139;32;20192;-74
2024/01/24 03:22:14;;;;;;;22.40;13.88;;;;;;;1.11;65.72;101114.47;4406189;32;20176;-74
2024/01/24 03:24:43;;;;;;;21.35;14.13;;;;;;;1.30;65.36;101112.53;4392267;32;20163;-74
2024/01/24 03:27:14;;;;;;;20.42;14.10;;;;;;;1.38;65.21;101108.94;4405961;32;20433;-74
2024/01/24 03:29:43;;;;;;;18.67;13.30;;;;;;;1.51;64.83;101103.59;4405779;32;20149;-74
2024/01/24 03:32:13;;;;;;;21.60;14.40;;;;;;;1.52;64.60;101100.94;4406255;32;20391;-74
2024/01/24 03:34:53;;;;;;;20.10;12.82;;;;;;;1.48;64.63;101087.06;4405828;32;20205;-74
2024/01/24 03:37:22;;;;;;;23.17;13.18;;;;;;;1.45;64.76;101081.00;4405911;32;20121;-74
2024/01/24 03:39:52;;;;;;;17.98;13.77;;;;;;;1.51;64.27;101073.09;4406779;27;20180;-74
2024/01/24 03:42:24;;;;;;;17.92;11.90;;;;;;;1.46;64.40;101067.91;4380311;32;20523;-74
2024/01/24 03:44:54;;;;;;;18.52;12.95;;;;;;;1.54;64.23;101070.44;4373676;32;20145;-74
2024/01/24 03:47:26;;;;;;;19.73;12.82;;;;;;;1.45;64.46;101071.41;4361040;33;20174;-74
2024/01/24 03:49:56;;;;;;;29.77;15.85;;;;;;;1.24;65.26;101079.53;4360433;32;20142;-74
2024/01/24 03:52:26;;;;;;;29.95;15.27;;;;;;;1.44;64.85;101080.16;4360623;32;20146;-74
2024/01/24 03:54:55;;;;;;;21.23;15.00;;;;;;;0.82;67.10;101086.94;4360748;32;20499;-74
2024/01/24 03:57:26;;;;;;;22.92;14.90;;;;;;;0.92;67.20;101091.22;4360499;32;20166;-74
2024/01/24 03:59:55;;;;;;;20.98;13.65;;;;;;;1.17;66.43;101077.87;4360415;32;20162;-74
2024/01/24 04:02:27;;;;;;;21.98;13.50;;;;;;;1.21;66.77;101087.41;4360609;33;20146;-74
2024/01/24 04:04:59;;;;;;;31.30;14.32;;;;;;;1.25;66.76;101088.22;4360330;32;20193;-74
2024/01/24 04:07:28;;;;;;;41.20;24.75;;;;;;;1.35;66.77;101084.63;4360493;32;20165;-74
2024/01/24 04:09:59;;;;;;;37.75;23.12;;;;;;;1.46;66.71;101074.88;4365224;27;20166;-74
2024/01/24 04:12:30;;;;;;;25.20;15.98;;;;;;;1.53;66.68;101080.91;4348318;33;20446;-74
2024/01/24 04:14:59;;;;;;;20.10;13.00;;;;;;;1.52;66.79;101073.97;4345553;32;20146;-74
2024/01/24 04:17:31;;;;;;;18.95;12.57;;;;;;;1.72;66.25;101078.03;4345826;33;20256;-77
2024/01/24 04:20:02;;;;;;;19.60;12.93;;;;;;;1.90;65.78;101071.69;4345212;33;20146;-77
2024/01/24 04:22:31;;;;;;;22.33;11.77;;;;;;;1.69;66.05;101067.59;4345299;33;20137;-77
2024/01/24 04:25:00;;;;;;;21.80;11.27;;;;;;;1.73;66.11;101073.66;4345324;33;20409;-77
2024/01/24 04:27:32;;;;;;;20.77;12.60;;;;;;;1.91;65.48;101056.84;4345521;33;20150;-77
2024/01/24 04:30:02;;;;;;;17.95;13.75;;;;;;;1.94;65.34;101062.00;4345227;33;20138;-77
2024/01/24 04:32:35;;;;;;;18.30;13.55;;;;;;;2.10;65.12;101057.41;4334600;33;20146;-77
2024/01/24 04:35:13;;;;;;;22.65;15.02;;;;;;;1.84;66.10;101068.28;4362202;33;20154;-75
2024/01/24 04:37:42;;;;;;;21.37;14.27;;;;;;;2.26;65.30;101071.09;4362397;32;20162;-75
2024/01/24 04:40:13;;;;;;;26.98;15.15;;;;;;;2.20;65.50;101061.63;4376110;27;20867;-74
2024/01/24 04:42:44;;;;;;;23.60;14.80;;;;;;;2.16;65.11;101057.31;4401498;32;20156;-74
2024/01/24 04:45:15;;;;;;;21.92;14.70;;;;;;;2.02;65.94;101054.06;4406997;32;20161;-74
2024/01/24 04:47:45;;;;;;;20.45;13.35;;;;;;;2.06;65.71;101053.13;4407383;32;20132;-75
2024/01/24 04:50:15;;;;;;;18.80;11.25;;;;;;;1.70;67.00;101044.94;4407599;32;20169;-75
2024/01/24 04:52:44;;;;;;;20.17;11.35;;;;;;;1.93;66.45;101052.47;4406998;32;20141;-75
2024/01/24 04:55:14;;;;;;;18.12;12.18;;;;;;;2.21;65.70;101053.72;4407045;32;20141;-74
2024/01/24 04:57:45;;;;;;;22.23;13.02;;;;;;;2.40;65.28;101051.69;4407110;32;20144;-74
2024/01/24 05:00:15;;;;;;;20.52;11.88;;;;;;;2.38;65.39;101042.16;4407090;32;20141;-74
2024/01/24 05:02:44;;;;;;;14.82;10.65;;;;;;;2.26;66.14;101040.63;4407076;32;20161;-75
2024/01/24 05:05:14;;;;;;;15.32;10.00;;;;;;;2.40;66.03;101033.37;4407372;32;20450;-75
2024/01/24 05:08:01;;;;;;;16.08;11.30;;;;;;;2.54;65.66;101042.75;4406904;32;20435;-75
2024/01/24 05:10:32;;;;;;;16.90;12.15;;;;;;;2.54;65.77;101038.38;4411978;27;20145;-74
2024/01/24 05:13:04;;;;;;;19.70;13.27;;;;;;;2.50;66.14;101031.47;4402561;32;20153;-75
2024/01/24 05:15:34;;;;;;;22.97;17.63;;;;;;;2.59;65.80;101025.19;4407035;32;20494;-75
2024/01/24 05:18:04;;;;;;;32.38;22.58;;;;;;;2.64;65.79;101008.50;4407129;32;20234;-75
2024/01/24 05:20:34;;;;;;;33.28;22.27;;;;;;;2.64;65.74;101010.28;4407366;32;20165;-75
2024/01/24 05:23:04;;;;;;;35.63;24.12;;;;;;;2.45;66.38;101009.75;4406862;32;20153;-75
2024/01/24 05:25:35;;;;;;;37.58;21.85;;;;;;;2.66;65.91;101017.22;4406966;32;20458;-75
2024/01/24 05:28:09;;;;;;;33.42;21.17;;;;;;;2.90;65.31;101008.03;4406595;32;20145;-74
2024/01/24 05:30:40;;;;;;;39.22;24.27;;;;;;;2.66;65.68;101009.38;4406558;32;20152;-75
2024/01/24 05:33:11;;;;;;;26.77;18.33;;;;;;;2.87;65.13;101009.84;4406522;32;20148;-75
2024/01/24 05:35:41;;;;;;;18.62;14.07;;;;;;;2.72;65.71;101009.22;4406398;32;20149;-75
2024/01/24 05:38:11;;;;;;;20.02;12.65;;;;;;;2.99;64.93;101011.34;4406627;32;20129;-74
2024/01/24 05:40:40;;;;;;;22.30;12.37;;;;;;;2.99;65.14;101003.50;4404094;27;20192;-74
2024/01/24 05:43:11;;;;;;;19.30;11.88;;;;;;;2.93;65.40;101017.53;4389678;32;20464;-74
2024/01/24 05:45:41;;;;;;;18.10;12.02;;;;;;;2.90;65.60;101015.00;4391357;32;20201;-74
2024/01/24 05:48:10;;;;;;;17.35;11.27;;;;;;;2.98;65.51;101017.47;4391680;32;20142;-75
2024/01/24 05:50:39;;;;;;;13.40;11.52;;;;;;;3.09;65.37;101005.91;4391584;32;20160;-75
2024/01/24 05:53:09;;;;;;;17.42;10.43;;;;;;;2.92;65.77;101014.06;4392072;32;20436;-75
2024/01/24 05:55:39;;;;;;;22.15;13.10;;;;;;;2.76;65.88;101006.56;4391451;32;20169;-75
2024/01/24 05:58:11;;;;;;;18.17;11.82;;;;;;;2.90;65.75;100994.94;4391398;32;20145;-75
2024/01/24 06:00:41;;;;;;;16.27;12.45;;;;;;;3.09;65.31;100992.81;4391461;32;20141;-75
2024/01/24 06:03:11;;;;;;;16.08;12.00;;;;;;;3.05;65.38;100991.16;4391380;32;20434;-75
2024/01/24 06:05:41;;;;;;;19.92;12.07;;;;;;;3.10;65.53;100999.75;4391557;32;20149;-75
2024/01/24 06:08:12;;;;;;;19.70;11.55;;;;;;;3.13;65.48;101002.31;4391863;32;20133;-75
2024/01/24 06:10:42;;;;;;;14.45;11.50;;;;;;;3.33;65.03;100996.66;4382599;27;20161;-74
2024/01/24 06:13:13;;;;;;;21.12;11.68;;;;;;;3.32;64.83;101004.53;4360116;32;20146;-75
2024/01/24 06:15:43;;;;;;;17.33;11.05;;;;;;;3.19;65.59;100990.84;4361480;32;20414;-75
2024/01/24 06:18:12;;;;;;;18.55;11.10;;;;;;;3.14;65.76;100996.19;4361429;33;20150;-74
2024/01/24 06:20:42;;;;;;;19.67;12.13;;;;;;;3.02;65.93;100983.34;4361537;32;20149;-77
2024/01/24 06:23:12;;;;;;;23.10;13.20;;;;;;;3.15;65.97;100978.69;4362020;33;20158;-75
2024/01/24 06:25:43;;;;;;;29.70;18.25;;;;;;;3.24;65.87;100985.50;4361639;33;20416;-75
2024/01/24 06:28:14;;;;;;;31.12;21.27;;;;;;;2.95;66.67;100984.34;4361569;32;20178;-75
2024/01/24 06:30:44;;;;;;;28.55;19.67;;;;;;;3.14;66.24;100979.59;4361573;32;20154;-74
2024/01/24 06:33:15;;;;;;;24.60;13.20;;;;;;;3.15;65.85;100974.31;4361587;32;20146;-75
2024/01/24 06:35:45;;;;;;;16.35;11.38;;;;;;;2.89;67.62;100958.28;4361337;33;20150;-75
2024/01/24 06:38:14;;;;;;;16.85;10.45;;;;;;;3.05;68.14;100944.00;4361914;33;20150;-75
2024/01/24 06:40:44;;;;;;;14.93;11.43;;;;;;;3.06;68.53;100931.78;4366779;27;20142;-75
2024/01/24 06:43:18;;;;;;;22.77;11.90;;;;;;;2.90;68.63;100932.09;4355595;33;20145;-75
2024/01/24 06:45:48;;;;;;;20.12;11.70;;;;;;;3.19;68.15;100939.31;4361361;32;20523;-75
2024/01/24 06:48:21;;;;;;;17.92;9.43;;;;;;;3.45;67.32;100924.78;4361339;32;20173;-75
2024/01/24 06:50:50;;;;;;;14.93;10.77;;;;;;;3.81;66.01;100916.91;4361233;32;20499;-75
2024/01/24 06:53:20;;;;;;;14.18;9.80;;;;;;;4.10;65.14;100919.63;4361779;32;20249;-74
2024/01/24 06:55:50;;;;;;;16.75;9.40;;;;;;;3.89;65.80;100914.97;4360398;32;20268;-75
2024/01/24 06:58:21;;;;;;;13.38;10.70;;;;;;;4.39;64.22;100897.00;4361148;32;20133;-75
2024/01/24 07:00:51;;;;;;;18.73;9.98;;;;;;;4.39;64.49;100902.25;4361311;32;20428;-75
2024/01/24 07:03:20;;;;;;;15.52;9.77;;;;;;;4.15;64.69;100896.75;4361208;32;20174;-75
2024/01/24 07:05:52;;;;;;;20.35;11.90;;;;;;;4.10;64.89;100887.31;4361262;32;20145;-75
2024/01/24 07:08:23;;;;;;;15.35;9.43;;;;;;;4.15;64.90;100891.50;4361642;33;20138;-75
2024/01/24 07:10:52;;;;;;;20.77;10.15;;;;;;;3.98;65.84;100887.63;4371688;27;20150;-74
2024/01/24 07:13:23;;;;;;;17.45;9.02;;;;;;;3.38;67.61;100881.28;4359948;32;20142;-75
2024/01/24 07:15:52;;;;;;;14.00;9.82;;;;;;;3.64;67.03;100876.25;4361248;32;20142;-75
2024/01/24 07:18:29;;;;;;;13.27;8.98;;;;;;;4.10;65.58;100879.44;4361006;32;20164;-75
2024/01/24 07:20:58;;;;;;;15.75;10.45;;;;;;;4.23;65.79;100878.19;4359803;32;20503;-75
2024/01/24 07:23:28;;;;;;;21.00;12.02;;;;;;;4.51;65.05;100883.53;4361600;33;20158;-75
2024/01/24 07:25:57;;;;;;;15.60;11.75;;;;;;;4.68;64.51;100886.53;4361160;32;20170;-75
2024/01/24 07:28:29;;;;;;;16.27;10.75;;;;;;;4.74;64.41;100879.38;4361584;32;20157;-75
2024/01/24 07:31:02;;;;;;;24.33;14.57;;;;;;;4.70;64.02;100881.22;4361010;32;20421;-75
2024/01/24 07:33:32;;;;;;;20.55;12.23;;;;;;;4.36;64.77;100884.84;4360945;32;20178;-75
2024/01/24 07:36:01;;;;;;;19.20;13.32;;;;;;;4.76;63.85;100878.44;4360906;32;20158;-75
2024/01/24 07:38:31;;;;;;;21.55;11.95;;;;;;;4.91;63.48;100869.25;4360060;33;20158;-75
2024/01/24 07:41:00;;;;;;;20.50;13.75;;;;;;;5.17;63.02;100869.28;4387411;27;20483;-74
2024/01/24 07:43:32;;;;;;;18.80;13.62;;;;;;;5.33;nan;100860.91;4400714;32;20510;-74
2024/01/24 07:46:02;;;;;;;16.75;12.43;;;;;;;5.21;62.80;100863.94;4396660;32;20164;-75
2024/01/24 07:48:38;;;;;;;19.20;13.05;;;;;;;5.18;62.63;100860.47;4390760;32;20146;-75
2024/01/24 07:51:08;;;;;;;19.10;15.57;;;;;;;5.33;62.60;100866.16;4390601;32;20117;-75
2024/01/24 07:53:38;;;;;;;24.70;15.27;;;;;;;5.42;62.41;100858.88;4389533;32;20169;-75
2024/01/24 07:56:12;;;;;;;22.50;14.48;;;;;;;5.47;62.64;100856.06;4390950;32;20149;-75
2024/01/24 07:58:55;;;;;;;24.73;14.85;;;;;;;5.61;62.27;100850.34;4390436;32;20150;-75
2024/01/24 08:01:25;;;;;;;24.17;14.35;;;;;;;5.57;62.36;100854.84;4390503;32;20165;-75
2024/01/24 08:03:55;;;;;;;22.30;15.48;;;;;;;5.70;62.00;100846.53;4390432;32;20165;-75
2024/01/24 08:06:24;;;;;;;28.73;15.15;;;;;;;5.55;62.50;100838.28;4391698;32;20149;-75
2024/01/24 08:08:53;;;;;;;17.17;14.63;;;;;;;5.61;62.30;100848.56;4392291;32;20420;-75
2024/01/24 08:11:24;;;;;;;21.23;15.10;;;;;;;5.29;62.43;100848.78;4392911;27;20138;-74
2024/01/24 08:13:55;;;;;;;23.75;15.43;;;;;;;5.40;61.98;100852.78;4389229;32;20168;-74
2024/01/24 08:16:25;;;;;;;17.85;14.90;;;;;;;5.64;61.64;100859.00;4392223;32;20342;-74
2024/01/24 08:18:55;;;;;;;20.20;16.62;;;;;;;5.54;62.22;100854.09;4392074;32;20133;-74
2024/01/24 08:21:29;;;;;;;28.67;16.17;;;;;;;5.44;62.65;100864.06;4392384;32;20158;-74
2024/01/24 08:24:01;;;;;;;21.98;17.10;;;;;;;5.57;62.50;100852.22;4392299;32;20164;-74
2024/01/24 08:26:31;;;;;;;23.83;17.55;;;;;;;5.50;63.25;100840.19;4392580;32;20145;-74
2024/01/24 08:29:02;;;;;;;24.08;17.62;;;;;;;5.40;63.98;100838.78;4392120;32;20129;-74
2024/01/24 08:31:31;;;;;;;23.60;18.55;;;;;;;5.52;63.39;100842.78;4392361;32;20410;-74
2024/01/24 08:34:00;;;;;;;22.73;19.15;;;;;;;5.40;63.51;100839.63;4392352;32;20193;-74
2024/01/24 08:36:29;;;;;;;22.70;17.08;;;;;;;5.23;64.04;100843.75;4392143;32;20165;-74
2024/01/24 08:38:59;;;;;;;25.50;17.98;;;;;;;5.33;64.12;100832.00;4391980;32;20164;-74
2024/01/24 08:41:28;;;;;;;26.20;18.42;;;;;;;5.58;63.46;100827.66;4392551;27;20169;-74
2024/01/24 08:43:58;;;;;;;34.30;21.90;;;;;;;5.52;63.89;100825.22;4388142;32;20157;-74
2024/01/24 08:46:29;;;;;;;31.70;22.00;;;;;;;5.59;63.99;100826.75;4391919;32;20208;-74
2024/01/24 08:48:58;;;;;;;27.73;22.67;;;;;;;5.62;64.06;100828.38;4392199;32;20157;-74
2024/01/24 08:51:31;;;;;;;29.27;17.25;;;;;;;5.57;64.22;100823.28;4392084;32;20216;-74
2024/01/24 08:54:01;;;;;;;24.98;18.00;;;;;;;5.56;64.33;100818.09;4392069;32;20136;-74
2024/01/24 08:56:31;;;;;;;18.77;15.63;;;;;;;5.54;64.13;100806.75;4392298;32;20136;-74
2024/01/24 08:59:00;;;;;;;23.17;16.52;;;;;;;5.45;64.17;100807.09;4392110;32;20421;-74
2024/01/24 09:01:31;;;;;;;22.90;16.15;;;;;;;5.03;65.28;100797.94;4392086;32;20157;-74
2024/01/24 09:04:01;;;;;;;22.15;16.60;;;;;;;5.16;65.17;100794.00;4392045;32;20149;-73
2024/01/24 09:06:34;;;;;;;25.40;17.90;;;;;;;5.07;65.54;100782.94;4392719;32;20140;-73
2024/01/24 09:09:03;;;;;;;18.73;15.75;;;;;;;5.14;65.87;100784.44;4392336;32;20137;-73
2024/01/24 09:11:33;;;;;;;24.05;16.92;;;;;;;5.28;65.10;100786.63;4385941;27;20516;-72
2024/01/24 09:14:14;;;;;;;31.98;20.40;;;;;;;5.41;64.91;100782.69;4390636;32;20145;-73
2024/01/24 09:16:44;;;;;;;36.30;24.02;;;;;;;5.36;65.52;100763.59;4391951;32;20145;-73
2024/01/24 09:19:14;;;;;;;39.42;23.30;;;;;;;4.47;68.72;100766.41;4392163;32;20165;-73
2024/01/24 09:21:43;;;;;;;35.67;21.08;;;;;;;5.13;66.85;100778.34;4392387;32;20157;-73
2024/01/24 09:24:13;;;;;;;70.65;39.53;;;;;;;5.17;66.88;100772.06;4392346;32;20145;-73
2024/01/24 09:26:42;;;;;;;54.58;34.15;;;;;;;4.69;68.94;100762.25;4392440;32;20507;-73
2024/01/24 09:29:12;;;;;;;68.03;39.53;;;;;;;4.98;68.27;100762.22;4392576;32;20138;-73
2024/01/24 09:31:45;;;;;;;27.98;20.33;;;;;;;5.14;67.41;100750.28;4392298;32;20133;-73
2024/01/24 09:34:16;;;;;;;24.33;15.75;;;;;;;4.73;68.36;100747.25;4392144;32;20141;-73
2024/01/24 09:36:46;;;;;;;25.65;16.60;;;;;;;4.85;67.73;100744.22;4392319;32;20149;-73
2024/01/24 09:39:15;;;;;;;24.40;16.85;;;;;;;4.95;67.29;100736.94;4392108;32;20510;-75
2024/01/24 09:41:45;;;;;;;34.00;20.10;;;;;;;5.35;66.26;100723.31;4384126;27;20386;-75
2024/01/24 09:44:17;;;;;;;25.55;15.50;;;;;;;4.85;67.80;100733.72;4390109;32;20141;-75
2024/01/24 09:46:49;;;;;;;20.23;15.85;;;;;;;5.00;67.66;100745.50;4391928;32;20168;-73
2024/01/24 09:49:23;;;;;;;24.45;17.02;;;;;;;5.24;66.84;100732.47;4391975;32;20170;-73
2024/01/24 09:51:54;;;;;;;22.15;16.33;;;;;;;5.41;66.18;100724.84;4391817;32;20464;-73
2024/01/24 09:54:25;;;;;;;23.17;14.07;;;;;;;5.50;66.41;100708.75;4391648;32;20142;-73
2024/01/24 09:56:54;;;;;;;24.35;13.82;;;;;;;5.49;65.43;100706.19;4391749;32;20217;-73
2024/01/24 09:59:23;;;;;;;18.70;14.20;;;;;;;5.31;65.05;100689.31;4391972;32;20172;-73
2024/01/24 10:01:54;;;;;;;15.85;11.05;;;;;;;5.36;65.46;100690.00;4391983;32;20153;-71
2024/01/24 10:04:26;;;;;;;18.87;13.45;;;;;;;5.15;64.58;100670.59;4391507;32;20145;-72
2024/01/24 10:06:56;;;;;;;19.87;12.47;;;;;;;5.45;64.37;100660.75;4391686;32;20141;-74
2024/01/24 10:09:26;;;;;;;18.42;12.37;;;;;;;5.43;64.61;100649.44;4391804;32;20269;-75
2024/01/24 10:11:55;;;;;;;23.33;14.80;;;;;;;5.22;65.18;100650.19;4382676;27;20352;-75
2024/01/24 10:14:24;;;;;;;23.87;16.05;;;;;;;5.40;64.69;100649.56;4390380;32;20419;-75
2024/01/24 10:16:53;;;;;;;23.38;13.73;;;;;;;5.58;64.86;100635.75;4391634;32;20169;-75
2024/01/24 10:19:25;;;;;;;15.30;12.15;;;;;;;5.44;64.93;100630.13;4391151;32;20149;-75
2024/01/24 10:21:55;;;;;;;14.95;11.82;;;;;;;5.79;63.99;100614.81;4391521;32;20157;-75
2024/01/24 10:24:24;;;;;;;16.75;11.27;;;;;;;5.91;64.15;100603.84;4391224;32;20156;-75
2024/01/24 10:26:54;;;;;;;12.27;9.38;;;;;;;6.00;63.02;100587.72;4391320;32;20153;-75
2024/01/24 10:29:24;;;;;;;15.40;11.82;;;;;;;5.69;62.89;100595.91;4391525;32;20402;-74
2024/01/24 10:31:56;;;;;;;14.60;11.35;;;;;;;5.69;62.94;100577.50;4391380;32;20201;-75
2024/01/24 10:34:28;;;;;;;13.80;10.07;;;;;;;5.72;63.62;100573.91;4391370;32;20153;-75
2024/01/24 10:36:59;;;;;;;12.68;9.73;;;;;;;5.71;64.05;100580.94;4391315;32;20177;-75
2024/01/24 10:39:33;;;;;;;15.98;10.15;;;;;;;5.90;62.12;100576.69;4391294;32;20134;-75
2024/01/24 10:42:06;;;;;;;13.85;10.27;;;;;;;5.71;62.79;100574.81;4381608;27;20546;-75
2024/01/24 10:44:43;;;;;;;14.52;11.10;;;;;;;5.55;62.39;100578.03;4391005;32;20518;-75
2024/01/24 10:47:13;;;;;;;16.98;12.23;;;;;;;5.74;62.77;100572.06;4391639;32;20141;-75
2024/01/24 10:49:45;;;;;;;19.42;13.15;;;;;;;5.51;64.54;100551.94;4390084;32;20433;-75
2024/01/24 10:52:15;;;;;;;18.27;12.37;;;;;;;5.78;63.49;100565.75;4391390;32;20149;-75
2024/01/24 10:54:50;;;;;;;18.10;11.60;;;;;;;5.68;64.10;100557.38;4391306;32;20145;-75
2024/01/24 10:57:20;;;;;;;15.95;12.13;;;;;;;6.14;62.69;100559.09;4391127;32;20494;-75
2024/01/24 10:59:51;;;;;;;18.12;11.68;;;;;;;6.13;62.39;100543.34;4391083;32;20173;-75
2024/01/24 11:02:21;;;;;;;15.20;11.00;;;;;;;5.99;62.55;100528.13;4391581;32;20245;-75
2024/01/24 11:04:58;;;;;;;17.77;12.02;;;;;;;6.12;62.20;100512.69;4391052;32;20157;-75
2024/01/24 11:07:35;;;;;;;18.83;11.98;;;;;;;6.02;62.02;100495.56;4391388;32;20173;-75
2024/01/24 11:10:17;;;;;;;19.92;12.18;;;;;;;6.19;62.08;100495.75;4394825;27;20169;-75
2024/01/24 11:12:46;;;;;;;21.50;15.60;;;;;;;6.28;62.12;100497.97;4348046;33;20150;-75
2024/01/24 11:15:16;;;;;;;17.30;13.00;;;;;;;6.36;62.28;100479.25;4361166;32;20158;-75
2024/01/24 11:17:46;;;;;;;19.67;12.63;;;;;;;6.51;61.51;100468.06;4361231;32;20178;-75
2024/01/24 11:20:21;;;;;;;19.45;12.88;;;;;;;6.49;61.36;100455.88;4361508;32;20193;-75
2024/01/24 11:22:50;;;;;;;18.02;13.00;;;;;;;6.36;61.66;100450.28;4361436;32;20150;-75
2024/01/24 11:25:38;;;;;;;17.65;13.02;;;;;;;6.65;61.02;100460.41;4361346;32;20511;-75
2024/01/24 11:28:09;;;;;;;14.43;11.48;;;;;;;6.33;62.37;100458.31;4361050;32;20157;-75
2024/01/24 11:30:39;;;;;;;13.48;10.68;;;;;;;6.47;61.08;100453.31;4360885;32;20154;-75
2024/01/24 11:33:16;;;;;;;17.42;11.52;;;;;;;6.12;61.44;100442.50;4360886;32;20422;-75